Time;durP1;ratioP1;P1;durP2;ratioP2;P2;SDS_P1;SDS_P2;PMS_P1;PMS_P2;Temp;Humidity;BMP_temperature;BMP_pressure;BME280_temperature;BME280_humidity;BME280_pressure;Samples;Min_cycle;Max_cycle;Signal;HPM_P1;HPM_P2
2024/04/13 00:01:38;;;;;;;8.40;3.20;;;;;;;14.57;53.99;101210.24;105004;1260;66278;-59
2024/04/13 00:04:07;;;;;;;8.40;3.20;;;;;;;14.51;54.21;101212.48;104945;1259;61621;-60
2024/04/13 00:06:34;;;;;;;5.70;3.10;;;;;;;14.44;54.71;101210.89;108824;1256;63904;-59
2024/04/13 00:09:01;;;;;;;6.10;3.10;;;;;;;14.40;54.54;101212.14;108896;1257;59396;-60
2024/04/13 00:11:28;;;;;;;10.20;3.70;;;;;;;14.39;54.63;101215.90;108873;1257;60020;-59
2024/04/13 00:13:55;;;;;;;5.90;3.00;;;;;;;14.40;54.65;101217.63;108889;1257;65906;-59
2024/04/13 00:16:21;;;;;;;6.50;2.80;;;;;;;14.42;54.53;101212.10;108863;1256;61493;-59
2024/04/13 00:18:48;;;;;;;8.20;3.10;;;;;;;14.47;54.50;101208.71;108212;1257;62458;-58
2024/04/13 00:21:15;;;;;;;7.10;2.80;;;;;;;14.50;54.43;101206.52;104979;1257;61241;-58
2024/04/13 00:23:45;;;;;;;5.80;2.70;;;;;;;14.54;54.51;101206.23;105041;1259;61360;-58
2024/04/13 00:26:12;;;;;;;6.90;3.10;;;;;;;14.55;54.75;101206.62;105194;1260;65845;-59
2024/04/13 00:28:39;;;;;;;7.30;2.80;;;;;;;14.55;54.69;101207.04;105250;1260;61283;-57
2024/04/13 00:31:06;;;;;;;6.60;3.20;;;;;;;14.52;54.60;101204.22;104994;1260;64361;-59
2024/04/13 00:33:38;;;;;;;5.50;2.90;;;;;;;14.48;54.56;101201.77;105063;1258;61194;-59
2024/04/13 00:36:06;;;;;;;8.50;3.30;;;;;;;14.41;54.69;101200.20;105048;1258;61257;-57
2024/04/13 00:38:33;;;;;;;7.10;3.00;;;;;;;14.35;54.80;101195.97;105573;1259;65866;-60
2024/04/13 00:41:00;;;;;;;6.70;2.90;;;;;;;14.30;54.93;101199.02;105591;1259;61654;-60
2024/04/13 00:43:27;;;;;;;6.40;3.00;;;;;;;14.26;55.33;101196.45;105553;1261;63834;-60
2024/04/13 00:45:55;;;;;;;6.50;3.40;;;;;;;14.26;55.58;101193.48;105660;1260;61802;-60
2024/04/13 00:48:23;;;;;;;5.40;3.10;;;;;;;14.27;55.31;101190.79;105606;1257;61257;-59
2024/04/13 00:50:54;;;;;;;7.60;3.30;;;;;;;14.24;55.45;101193.12;105721;1257;74396;-59
2024/04/13 00:53:20;;;;;;;7.40;2.90;;;;;;;14.23;55.57;101189.02;105845;1258;61282;-59
2024/04/13 00:55:47;;;;;;;7.30;3.40;;;;;;;14.24;55.39;101188.40;105127;1256;73152;-59
2024/04/13 00:58:14;;;;;;;7.20;3.60;;;;;;;14.23;55.42;101184.25;105198;1262;61243;-59
2024/04/13 01:00:41;;;;;;;8.40;3.60;;;;;;;14.21;55.60;101184.55;105856;1257;61242;-57
2024/04/13 01:03:08;;;;;;;7.30;3.20;;;;;;;14.19;55.62;101179.96;105236;1257;66007;-59
2024/04/13 01:05:35;;;;;;;6.60;3.40;;;;;;;14.17;55.57;101182.40;106730;1260;61679;-58
2024/04/13 01:08:04;;;;;;;6.50;3.40;;;;;;;14.19;55.61;101177.85;108489;1257;63896;-58
2024/04/13 01:10:31;;;;;;;6.80;3.20;;;;;;;14.24;55.48;101176.06;105490;1260;61372;-57
2024/04/13 01:12:58;;;;;;;8.50;3.50;;;;;;;14.27;55.39;101177.17;106271;1257;61372;-56
2024/04/13 01:15:27;;;;;;;8.10;3.30;;;;;;;14.32;55.26;101173.48;105386;1262;65835;-58
2024/04/13 01:17:54;;;;;;;7.10;3.10;;;;;;;14.36;55.00;101175.02;105891;1260;61247;-60
2024/04/13 01:20:21;;;;;;;6.90;3.10;;;;;;;14.38;55.17;101170.81;105023;1258;63928;-58
2024/04/13 01:22:48;;;;;;;6.00;3.20;;;;;;;14.42;55.07;101166.64;105178;1260;61298;-59
2024/04/13 01:25:15;;;;;;;6.10;3.10;;;;;;;14.44;54.77;101173.67;104967;1259;61373;-59
2024/04/13 01:27:42;;;;;;;7.80;3.30;;;;;;;14.40;54.71;101171.36;105207;1260;67875;-59
2024/04/13 01:30:09;;;;;;;5.90;3.10;;;;;;;14.35;54.80;101175.86;106794;1258;61742;-58
2024/04/13 01:32:37;;;;;;;8.10;2.90;;;;;;;14.37;54.65;101170.34;105469;1258;62561;-58
2024/04/13 01:35:11;;;;;;;6.30;3.20;;;;;;;14.42;54.55;101168.00;106071;1258;61246;-58
2024/04/13 01:37:38;;;;;;;6.90;3.20;;;;;;;14.50;54.45;101163.44;105385;1260;61191;-60
2024/04/13 01:40:06;;;;;;;6.30;3.10;;;;;;;14.56;54.50;101163.13;105447;1257;64623;-60
2024/04/13 01:42:36;;;;;;;6.30;2.90;;;;;;;14.58;54.31;101165.42;105606;1260;61544;-58
2024/04/13 01:45:04;;;;;;;5.30;2.50;;;;;;;14.59;54.19;101161.15;105416;1258;63998;-58
2024/04/13 01:47:31;;;;;;;5.50;2.70;;;;;;;14.61;54.10;101156.69;105456;1258;61941;-61
2024/04/13 01:49:58;;;;;;;7.00;3.00;;;;;;;14.63;53.97;101155.27;105515;1261;61315;-60
2024/04/13 01:52:25;;;;;;;6.10;2.90;;;;;;;14.65;53.97;101150.96;105632;1261;65781;-56
2024/04/13 01:54:51;;;;;;;6.10;2.80;;;;;;;14.67;53.83;101153.06;106598;1260;62659;-59
2024/04/13 01:57:18;;;;;;;5.60;3.20;;;;;;;14.67;53.77;101149.27;105161;1261;63863;-59
2024/04/13 01:59:46;;;;;;;6.40;2.80;;;;;;;14.65;53.62;101149.51;105141;1258;61272;-58
2024/04/13 02:02:12;;;;;;;5.20;2.80;;;;;;;14.62;53.79;101143.08;104923;1259;61229;-58
2024/04/13 02:04:39;;;;;;;6.20;2.60;;;;;;;14.64;54.00;101141.46;105393;1260;66329;-59
2024/04/13 02:07:06;;;;;;;6.40;2.90;;;;;;;14.68;53.98;101143.20;105409;1261;61796;-57
2024/04/13 02:09:33;;;;;;;6.50;3.10;;;;;;;14.76;53.82;101141.50;104968;1262;229453;-58
2024/04/13 02:13:19;;;;;;;5.60;2.50;;;;;;;14.50;54.58;101139.83;102113;1295;607479;-60
2024/04/13 02:15:49;;;;;;;7.70;3.00;;;;;;;14.87;53.29;101137.44;104555;1265;59937;-60
2024/04/13 02:18:17;;;;;;;7.10;2.50;;;;;;;14.84;53.10;101133.94;104720;1265;60413;-59
2024/04/13 02:20:44;;;;;;;5.20;2.60;;;;;;;14.79;53.13;101132.97;104687;1267;64247;-59
2024/04/13 02:23:12;;;;;;;6.70;2.30;;;;;;;14.76;53.25;101135.36;104761;1267;61562;-58
2024/04/13 02:25:45;;;;;;;5.70;2.50;;;;;;;14.72;53.30;101137.30;105861;1265;164559;-58
2024/04/13 02:28:12;;;;;;;5.80;2.30;;;;;;;14.66;53.46;101143.71;104791;1264;59650;-58
2024/04/13 02:30:39;;;;;;;6.60;2.80;;;;;;;14.62;53.62;101143.78;104955;1264;59708;-58
2024/04/13 02:33:06;;;;;;;6.20;2.90;;;;;;;14.59;53.76;101137.45;104700;1264;64411;-57
2024/04/13 02:35:33;;;;;;;5.10;2.20;;;;;;;14.64;53.78;101134.79;104685;1264;62020;-59
2024/04/13 02:38:00;;;;;;;5.30;2.70;;;;;;;14.73;53.68;101138.60;105121;1266;64000;-59
2024/04/13 02:40:27;;;;;;;6.20;2.50;;;;;;;14.80;53.60;101137.46;104633;1266;60563;-57
2024/04/13 02:42:54;;;;;;;7.10;2.30;;;;;;;14.83;53.63;101137.17;104743;1264;60635;-58
2024/04/13 02:45:20;;;;;;;5.70;2.70;;;;;;;14.87;53.77;101133.64;104493;1263;65262;-61
2024/04/13 02:47:50;;;;;;;6.30;2.60;;;;;;;14.91;53.82;101131.02;104854;1264;61716;-60
2024/04/13 02:50:18;;;;;;;11.00;2.70;;;;;;;14.94;53.71;101124.41;104888;1264;63982;-59
2024/04/13 02:52:46;;;;;;;6.40;2.70;;;;;;;14.97;53.42;101128.42;104796;1264;60501;-61
2024/04/13 02:55:16;;;;;;;4.80;2.40;;;;;;;14.98;53.28;101126.56;104714;1264;60466;-57
2024/04/13 02:57:43;;;;;;;5.50;2.20;;;;;;;14.97;53.12;101121.34;104709;1266;65262;-57
2024/04/13 03:00:11;;;;;;;6.00;2.60;;;;;;;14.94;53.13;101119.00;104810;1262;61497;-59
2024/04/13 03:02:38;;;;;;;4.70;2.30;;;;;;;14.92;53.22;101118.98;104953;1264;64948;-59
2024/04/13 03:05:06;;;;;;;8.50;2.70;;;;;;;14.89;53.22;101114.43;104907;1262;60485;-60
2024/04/13 03:07:34;;;;;;;6.70;2.30;;;;;;;14.87;53.17;101118.48;105100;1263;60469;-58
2024/04/13 03:10:01;;;;;;;5.60;2.30;;;;;;;14.91;53.31;101120.10;105170;1266;64999;-59
2024/04/13 03:12:28;;;;;;;6.40;2.40;;;;;;;14.98;53.11;101120.02;105233;1264;61573;-59
2024/04/13 03:14:55;;;;;;;6.10;2.10;;;;;;;15.00;52.94;101119.10;105830;1258;64025;-64
2024/04/13 03:17:21;;;;;;;6.50;2.30;;;;;;;14.99;52.81;101120.44;105779;1254;60548;-58
2024/04/13 03:19:51;;;;;;;4.70;1.80;;;;;;;14.96;52.73;101121.23;105419;1254;62098;-58
2024/04/13 03:22:20;;;;;;;6.30;2.20;;;;;;;14.94;52.91;101120.84;106256;1255;63935;-58
2024/04/13 03:24:47;;;;;;;5.80;2.10;;;;;;;14.93;53.01;101118.83;105361;1254;61425;-57
2024/04/13 03:27:14;;;;;;;7.20;2.60;;;;;;;14.93;52.94;101117.80;106334;1253;64493;-58
2024/04/13 03:29:41;;;;;;;4.90;2.30;;;;;;;14.92;52.85;101118.10;105198;1254;60329;-60
2024/04/13 03:32:08;;;;;;;4.30;2.30;;;;;;;14.92;52.86;101118.24;105459;1254;60527;-58
2024/04/13 03:34:35;;;;;;;5.40;2.20;;;;;;;14.93;52.79;101118.86;105596;1254;63637;-60
2024/04/13 03:37:01;;;;;;;6.30;2.20;;;;;;;14.93;52.86;101120.79;105618;1254;60464;-58
2024/04/13 03:39:28;;;;;;;4.40;2.10;;;;;;;14.91;53.03;101118.85;105787;1257;64051;-58
2024/04/13 03:41:55;;;;;;;5.70;2.50;;;;;;;14.88;52.94;101119.48;105857;1259;60565;-59
2024/04/13 03:44:22;;;;;;;4.90;1.80;;;;;;;14.90;52.85;101119.80;107793;1254;60562;-59
2024/04/13 03:46:49;;;;;;;5.40;2.00;;;;;;;14.97;52.80;101116.42;105829;1257;65289;-58
2024/04/13 03:49:16;;;;;;;6.00;2.10;;;;;;;15.01;52.66;101115.02;105411;1254;61483;-59
2024/04/13 03:51:43;;;;;;;6.20;2.50;;;;;;;15.01;52.69;101117.25;105093;1255;64013;-58
2024/04/13 03:54:10;;;;;;;5.50;2.50;;;;;;;15.02;52.71;101112.59;105365;1259;60539;-60
2024/04/13 03:56:37;;;;;;;6.60;2.30;;;;;;;15.05;52.66;101113.71;105034;1254;60559;-60
2024/04/13 03:59:04;;;;;;;6.30;2.10;;;;;;;15.07;52.50;101113.25;105288;1258;65253;-58
2024/04/13 04:01:31;;;;;;;6.30;2.60;;;;;;;15.06;52.45;101112.74;105543;1259;60678;-59
2024/04/13 04:03:58;;;;;;;6.50;2.30;;;;;;;15.04;52.46;101114.21;105269;1254;64020;-57
2024/04/13 04:06:25;;;;;;;5.50;2.40;;;;;;;15.01;52.51;101115.33;105191;1254;60458;-59
2024/04/13 04:08:52;;;;;;;5.40;2.50;;;;;;;14.98;52.53;101116.29;105935;1254;60536;-58
2024/04/13 04:11:20;;;;;;;4.90;2.30;;;;;;;14.96;52.75;101114.91;105136;1259;65217;-58
2024/04/13 04:13:47;;;;;;;5.50;2.10;;;;;;;14.96;52.83;101115.39;105320;1258;61606;-58
2024/04/13 04:16:14;;;;;;;5.10;2.70;;;;;;;14.98;53.08;101118.95;105161;1254;64010;-58
2024/04/13 04:18:43;;;;;;;5.10;2.30;;;;;;;14.99;53.06;101116.08;105297;1253;60440;-59
2024/04/13 04:21:10;;;;;;;5.80;2.40;;;;;;;15.04;52.82;101117.20;105319;1254;60460;-58
2024/04/13 04:23:37;;;;;;;6.40;2.20;;;;;;;15.12;52.65;101120.38;105350;1260;65002;-59
2024/04/13 04:26:06;;;;;;;4.50;2.30;;;;;;;15.15;52.57;101119.75;105253;1254;61690;-59
2024/04/13 04:28:33;;;;;;;5.00;2.30;;;;;;;15.16;52.57;101124.61;105534;1254;64053;-58
2024/04/13 04:31:12;;;;;;;6.40;2.50;;;;;;;15.17;52.48;101125.82;105742;1254;60357;-66
2024/04/13 04:33:39;;;;;;;6.60;3.40;;;;;;;15.16;52.43;101125.34;106376;1258;60856;-66
2024/04/13 04:36:08;;;;;;;5.70;2.90;;;;;;;15.16;52.40;101127.98;105521;1254;63992;-59
2024/04/13 04:38:36;;;;;;;7.10;2.70;;;;;;;15.14;52.48;101129.38;106495;1258;61472;-59
2024/04/13 04:41:03;;;;;;;6.10;3.20;;;;;;;15.12;52.51;101129.42;105578;1257;65292;-60
2024/04/13 04:43:30;;;;;;;7.50;2.80;;;;;;;15.10;52.64;101127.66;105838;1254;60351;-59
2024/04/13 04:45:57;;;;;;;6.20;2.70;;;;;;;15.09;52.53;101127.94;105812;1254;60325;-60
2024/04/13 04:48:24;;;;;;;5.50;2.80;;;;;;;15.07;52.60;101125.21;105812;1254;65510;-58
2024/04/13 04:50:58;;;;;;;5.00;2.70;;;;;;;15.07;52.58;101130.21;105928;1254;61640;-56
2024/04/13 04:53:28;;;;;;;9.90;2.90;;;;;;;15.06;52.52;101126.36;105929;1254;64248;-66
2024/04/13 04:55:56;;;;;;;7.10;3.20;;;;;;;15.07;52.40;101126.64;105258;1254;60423;-58
2024/04/13 04:58:24;;;;;;;5.90;2.80;;;;;;;15.09;52.37;101128.40;109241;1254;58371;-57
2024/04/13 05:00:51;;;;;;;6.00;2.80;;;;;;;15.10;52.29;101124.31;109172;1254;65230;-58
2024/04/13 05:03:18;;;;;;;7.00;2.70;;;;;;;15.14;52.25;101123.96;109238;1257;60490;-57
2024/04/13 05:05:45;;;;;;;6.30;2.80;;;;;;;15.23;52.30;101121.70;109200;1254;62418;-57
2024/04/13 05:08:12;;;;;;;6.90;3.20;;;;;;;15.32;52.10;101122.14;109247;1258;58173;-59
2024/04/13 05:10:39;;;;;;;5.20;3.00;;;;;;;15.37;52.05;101120.11;108775;1254;59352;-59
2024/04/13 05:13:06;;;;;;;10.50;3.10;;;;;;;15.40;51.95;101115.63;105504;1260;65472;-58
2024/04/13 05:15:34;;;;;;;6.70;2.90;;;;;;;15.45;51.73;101116.48;105483;1254;61549;-60
2024/04/13 05:18:02;;;;;;;6.20;2.70;;;;;;;15.49;51.86;101115.20;105112;1260;64072;-59
2024/04/13 05:20:30;;;;;;;6.10;2.80;;;;;;;15.56;51.71;101112.56;109229;1254;58283;-59
2024/04/13 05:22:58;;;;;;;7.40;3.10;;;;;;;15.62;51.51;101106.09;109182;1254;58256;-58
2024/04/13 05:25:25;;;;;;;8.00;2.80;;;;;;;15.64;51.17;101103.75;109205;1255;65685;-57
2024/04/13 05:27:52;;;;;;;6.90;2.90;;;;;;;15.65;51.26;101100.88;109219;1254;61542;-58
2024/04/13 05:30:18;;;;;;;6.60;3.10;;;;;;;15.66;51.32;101094.37;107619;1259;62530;-58
2024/04/13 05:32:45;;;;;;;7.20;2.90;;;;;;;15.69;51.26;101093.25;105373;1254;61434;-58
2024/04/13 05:35:16;;;;;;;5.40;2.60;;;;;;;15.74;51.10;101094.35;105380;1254;60446;-58
2024/04/13 05:37:42;;;;;;;6.10;2.70;;;;;;;15.77;51.18;101094.48;105449;1254;65543;-59
2024/04/13 05:40:13;;;;;;;6.20;2.70;;;;;;;15.78;51.20;101089.83;105387;1257;61756;-57
2024/04/13 05:42:39;;;;;;;8.10;2.90;;;;;;;15.80;51.27;101086.59;105536;1255;63744;-61
2024/04/13 05:45:07;;;;;;;6.30;2.70;;;;;;;15.84;51.22;101086.95;105510;1260;60451;-68
2024/04/13 05:47:34;;;;;;;11.80;6.00;;;;;;;15.88;51.16;101086.96;106512;1255;60465;-61
2024/04/13 05:50:01;;;;;;;8.00;3.50;;;;;;;15.94;51.36;101084.98;105290;1254;64973;-71
2024/04/13 05:52:29;;;;;;;5.80;2.50;;;;;;;16.07;50.97;101085.26;105383;1254;61653;-63
2024/04/13 05:54:56;;;;;;;5.80;2.80;;;;;;;16.18;50.58;101083.48;105937;1253;64368;-68
2024/04/13 05:57:23;;;;;;;6.10;2.60;;;;;;;16.28;50.38;101080.77;106109;1254;60325;-70
2024/04/13 05:59:50;;;;;;;6.20;2.70;;;;;;;16.40;50.16;101082.30;105329;1254;60562;-70
2024/04/13 06:02:16;;;;;;;7.30;2.50;;;;;;;16.55;49.77;101082.02;105217;1255;67207;-69
2024/04/13 06:04:43;;;;;;;5.50;2.50;;;;;;;16.67;48.80;101083.48;105222;1254;61536;-67
2024/04/13 06:07:12;;;;;;;5.00;2.60;;;;;;;16.71;48.12;101082.05;105220;1260;64384;-71
2024/04/13 06:09:40;;;;;;;6.70;2.90;;;;;;;16.75;48.36;101078.34;105318;1258;60535;-68
2024/04/13 06:12:07;;;;;;;6.70;2.40;;;;;;;16.86;48.15;101074.84;105684;1254;60457;-71
2024/04/13 06:14:35;;;;;;;6.40;3.30;;;;;;;16.98;48.00;101074.44;105605;1254;63818;-69
2024/04/13 06:17:02;;;;;;;5.50;2.60;;;;;;;17.09;47.53;101070.71;105834;1258;62714;-68
2024/04/13 06:19:29;;;;;;;6.00;2.80;;;;;;;17.17;46.58;101071.39;105698;1259;63991;-67
2024/04/13 06:21:56;;;;;;;6.10;2.50;;;;;;;17.19;46.16;101068.13;105213;1259;62808;-65
2024/04/13 06:24:23;;;;;;;6.20;2.10;;;;;;;17.20;46.16;101067.17;105917;1254;61371;-65
2024/04/13 06:26:50;;;;;;;6.00;2.50;;;;;;;17.22;45.70;101063.38;105082;1259;65830;-61
2024/04/13 06:29:17;;;;;;;6.10;2.20;;;;;;;17.29;45.37;101066.12;105625;1254;61697;-66
2024/04/13 06:31:48;;;;;;;7.30;2.30;;;;;;;17.35;44.99;101065.67;105313;1254;64484;-66
2024/04/13 06:34:15;;;;;;;5.80;2.10;;;;;;;17.39;43.82;101064.62;105165;1255;61395;-67
2024/04/13 06:36:42;;;;;;;7.20;2.20;;;;;;;17.40;43.67;101062.88;105206;1255;61270;-68
2024/04/13 06:39:14;;;;;;;5.70;2.30;;;;;;;17.43;43.43;101060.50;105369;1258;65944;-65
2024/04/13 06:41:41;;;;;;;4.40;1.60;;;;;;;17.47;42.91;101062.92;107200;1254;61768;-69
2024/04/13 06:44:08;;;;;;;5.40;1.90;;;;;;;17.50;42.60;101060.73;105445;1254;63986;-69
2024/04/13 06:46:36;;;;;;;6.10;1.70;;;;;;;17.52;41.71;101059.20;108973;1259;60087;-76
2024/04/13 06:49:04;;;;;;;4.70;1.60;;;;;;;17.57;41.87;101059.46;105637;1260;61638;-59
2024/04/13 06:51:31;;;;;;;4.70;1.70;;;;;;;17.60;41.24;101055.00;105599;1258;65875;-68
2024/04/13 06:53:57;;;;;;;5.70;1.90;;;;;;;17.64;41.40;101053.45;106440;1257;63400;-65
2024/04/13 06:56:24;;;;;;;6.90;1.90;;;;;;;17.69;41.39;101056.85;105102;1254;63797;-67
2024/04/13 06:58:51;;;;;;;8.20;2.70;;;;;;;17.76;40.92;101059.70;105306;1254;61395;-63
2024/04/13 07:01:18;;;;;;;4.00;1.50;;;;;;;17.78;41.04;101050.11;105374;1256;61192;-67
2024/04/13 07:03:45;;;;;;;4.50;1.60;;;;;;;17.81;41.51;101049.77;105282;1260;66073;-66
2024/04/13 07:06:12;;;;;;;5.40;1.70;;;;;;;17.88;40.92;101044.92;105384;1260;61582;-69
2024/04/13 07:08:43;;;;;;;5.10;2.20;;;;;;;17.91;40.12;101043.17;105431;1260;63896;-69
2024/04/13 07:11:11;;;;;;;5.10;1.80;;;;;;;17.92;39.43;101039.66;105219;1260;61336;-69
2024/04/13 07:13:38;;;;;;;5.60;2.00;;;;;;;17.95;39.25;101034.23;105229;1255;61277;-72
2024/04/13 07:16:05;;;;;;;7.50;1.70;;;;;;;17.98;38.06;101030.95;105270;1254;65921;-69
2024/04/13 07:18:32;;;;;;;5.10;1.90;;;;;;;18.01;37.33;101030.11;106453;1257;61687;-69
2024/04/13 07:21:00;;;;;;;4.00;1.60;;;;;;;18.02;37.46;101033.30;105651;1260;63849;-71
2024/04/13 07:23:27;;;;;;;4.40;1.80;;;;;;;18.07;36.90;101031.08;105287;1254;61244;-68
2024/04/13 07:26:01;;;;;;;6.90;2.00;;;;;;;18.15;36.71;101027.45;105533;1254;61249;-67
2024/04/13 07:28:28;;;;;;;5.00;1.80;;;;;;;18.26;37.01;101021.98;105469;1260;66013;-67
2024/04/13 07:30:56;;;;;;;7.40;2.20;;;;;;;18.39;36.75;101021.80;105724;1258;61272;-66
2024/04/13 07:33:23;;;;;;;4.30;1.60;;;;;;;18.50;36.46;101016.31;105911;1254;72531;-69
2024/04/13 07:35:50;;;;;;;5.70;1.70;;;;;;;18.59;36.18;101015.39;105320;1256;61281;-67
2024/04/13 07:38:16;;;;;;;5.80;2.00;;;;;;;18.63;35.67;101014.10;105333;1254;61291;-71
2024/04/13 07:40:43;;;;;;;6.40;1.70;;;;;;;18.65;35.71;101010.05;105375;1258;65871;-66
2024/04/13 07:43:10;;;;;;;4.90;2.00;;;;;;;18.63;35.74;101006.14;105205;1259;61396;-69
2024/04/13 07:45:37;;;;;;;6.00;1.70;;;;;;;18.61;35.81;101008.96;105298;1259;64418;-69
2024/04/13 07:48:05;;;;;;;4.40;1.60;;;;;;;18.65;36.09;101016.39;106265;1254;61533;-69
2024/04/13 07:50:33;;;;;;;7.00;1.80;;;;;;;18.71;36.04;101009.55;105578;1260;61259;-68
2024/04/13 07:53:00;;;;;;;4.40;1.80;;;;;;;18.79;36.17;101000.55;105733;1258;66505;-68
2024/04/13 07:55:27;;;;;;;5.10;1.60;;;;;;;18.86;35.71;100994.16;105757;1260;61606;-67
2024/04/13 07:57:54;;;;;;;5.90;1.60;;;;;;;18.91;35.68;100991.52;105971;1259;64904;-69
2024/04/13 08:00:21;;;;;;;4.80;1.50;;;;;;;18.96;35.73;100994.19;105170;1254;61266;-69
2024/04/13 08:02:51;;;;;;;3.90;1.80;;;;;;;19.03;35.56;100993.48;105237;1254;61349;-70
2024/04/13 08:05:18;;;;;;;5.40;1.70;;;;;;;19.07;35.61;100990.17;105065;1259;64835;-69
2024/04/13 08:07:45;;;;;;;5.90;1.90;;;;;;;19.07;35.05;100986.71;105276;1258;61473;-66
2024/04/13 08:10:12;;;;;;;4.30;1.50;;;;;;;19.07;35.28;100979.27;104994;1261;64455;-67
2024/04/13 08:12:39;;;;;;;5.10;1.60;;;;;;;19.09;35.56;100986.98;105214;1260;62350;-66
2024/04/13 08:15:08;;;;;;;6.80;1.90;;;;;;;19.09;35.66;100986.02;105607;1255;61442;-66
2024/04/13 08:17:36;;;;;;;4.40;1.60;;;;;;;19.06;35.97;100979.61;105456;1260;65822;-71
2024/04/13 08:20:04;;;;;;;5.30;1.80;;;;;;;19.04;36.23;100984.94;105683;1257;62480;-68
2024/04/13 08:22:31;;;;;;;7.10;2.10;;;;;;;19.01;36.20;100989.27;107280;1260;62625;-59
2024/04/13 08:24:59;;;;;;;6.50;1.70;;;;;;;18.95;36.28;100983.95;105065;1254;61241;-58
2024/04/13 08:27:26;;;;;;;5.70;1.90;;;;;;;18.92;36.49;100980.48;105079;1260;61297;-59
2024/04/13 08:29:53;;;;;;;6.50;1.90;;;;;;;18.93;36.65;100983.61;106160;1260;66490;-58
2024/04/13 08:32:20;;;;;;;6.00;2.40;;;;;;;18.95;36.64;100973.08;105203;1264;62075;-58
2024/04/13 08:34:47;;;;;;;3.90;1.60;;;;;;;19.01;36.68;100971.83;105410;1257;65097;-59
2024/04/13 08:37:14;;;;;;;7.00;1.70;;;;;;;19.08;36.60;100968.94;105254;1253;61295;-63
2024/04/13 08:39:41;;;;;;;6.30;2.00;;;;;;;19.15;36.25;100966.25;104996;1260;61117;-71
2024/04/13 08:42:10;;;;;;;7.20;2.00;;;;;;;19.18;36.51;100963.25;105253;1258;67019;-70
2024/04/13 08:44:40;;;;;;;5.90;1.90;;;;;;;19.26;36.69;100959.56;105283;1260;62416;-70
2024/04/13 08:47:08;;;;;;;5.60;1.90;;;;;;;19.36;36.51;100957.06;105162;1260;63820;-67
2024/04/13 08:49:36;;;;;;;4.70;2.00;;;;;;;19.44;36.19;100948.79;105104;1255;61303;-71
2024/04/13 08:52:06;;;;;;;5.00;1.80;;;;;;;19.52;36.09;100950.33;105563;1254;61256;-71
2024/04/13 08:54:33;;;;;;;4.70;1.90;;;;;;;19.64;36.14;100951.45;105707;1258;66848;-61
2024/04/13 08:57:05;;;;;;;4.70;2.00;;;;;;;19.80;35.61;100948.11;106747;1254;62621;-66
2024/04/13 08:59:33;;;;;;;4.70;2.00;;;;;;;19.95;35.37;100942.98;105882;1260;64891;-61
2024/04/13 09:02:02;;;;;;;5.60;2.10;;;;;;;20.10;34.92;100943.27;109057;1255;61336;-67
2024/04/13 09:04:31;;;;;;;6.00;2.40;;;;;;;20.22;34.76;100943.71;105851;1260;61240;-64
2024/04/13 09:06:58;;;;;;;5.40;2.00;;;;;;;20.28;34.41;100936.30;106557;1259;67024;-63
2024/04/13 09:09:25;;;;;;;6.10;2.00;;;;;;;20.31;34.94;100937.82;105804;1260;62657;-63
2024/04/13 09:11:52;;;;;;;6.80;1.60;;;;;;;20.37;34.89;100941.82;105314;1259;64887;-67
2024/04/13 09:14:19;;;;;;;4.40;1.50;;;;;;;20.44;35.12;100944.79;106022;1253;61206;-70
2024/04/13 09:16:46;;;;;;;6.00;2.10;;;;;;;20.48;34.47;100936.68;105230;1260;61220;-63
2024/04/13 09:19:13;;;;;;;5.50;1.90;;;;;;;20.50;34.29;100927.84;105975;1259;66881;-66
2024/04/13 09:21:41;;;;;;;3.90;1.60;;;;;;;20.54;34.61;100925.86;109255;1254;61345;-63
2024/04/13 09:24:09;;;;;;;4.90;1.80;;;;;;;20.60;34.83;100926.20;109251;1255;64756;-59
2024/04/13 09:26:45;;;;;;;4.40;1.60;;;;;;;20.65;34.37;100925.39;109197;1254;59375;-62
2024/04/13 09:29:24;;;;;;;5.50;2.00;;;;;;;20.68;34.48;100923.55;109256;1255;59057;-59
2024/04/13 09:31:51;;;;;;;5.40;1.70;;;;;;;20.73;34.22;100915.83;109266;1254;65933;-61
2024/04/13 09:34:18;;;;;;;3.90;1.40;;;;;;;20.78;34.28;100915.92;107763;1257;69964;-60
2024/04/13 09:36:46;;;;;;;5.00;1.90;;;;;;;20.79;34.08;100918.54;106161;1260;65093;-62
2024/04/13 09:39:20;;;;;;;6.00;2.00;;;;;;;20.74;34.00;100913.41;105458;1260;61249;-61
2024/04/13 09:41:47;;;;;;;4.30;1.70;;;;;;;20.66;34.33;100905.08;105348;1258;61358;-61
2024/04/13 09:44:25;;;;;;;5.20;1.40;;;;;;;20.63;34.15;100897.93;105387;1259;66038;-60
2024/04/13 09:46:52;;;;;;;6.30;2.00;;;;;;;20.60;34.34;100902.34;105842;1260;61435;-62
2024/04/13 09:49:19;;;;;;;4.90;1.70;;;;;;;20.57;34.37;100898.14;106958;1260;65024;-59
2024/04/13 09:51:48;;;;;;;4.30;1.70;;;;;;;20.57;34.59;100889.79;105242;1260;61437;-61
2024/04/13 09:54:16;;;;;;;3.50;1.60;;;;;;;20.61;34.90;100886.55;105292;1252;61282;-60
2024/04/13 09:56:46;;;;;;;8.70;2.00;;;;;;;20.66;34.78;100886.19;105515;1257;65793;-60
2024/04/13 09:59:13;;;;;;;6.60;2.30;;;;;;;20.71;34.55;100880.98;105431;1257;61560;-60
2024/04/13 10:01:41;;;;;;;6.70;2.10;;;;;;;20.73;34.20;100871.58;105544;1257;65067;-59
2024/04/13 10:04:09;;;;;;;5.30;2.00;;;;;;;20.73;34.12;100868.99;106467;1251;61249;-63
2024/04/13 10:06:37;;;;;;;5.70;1.70;;;;;;;20.76;34.38;100860.25;109343;1256;59095;-63
2024/04/13 10:09:04;;;;;;;5.80;2.10;;;;;;;20.89;34.34;100854.44;106585;1257;67082;-63
2024/04/13 10:11:32;;;;;;;6.50;2.20;;;;;;;21.03;33.78;100849.04;106935;1256;61590;-60
2024/04/13 10:13:59;;;;;;;5.80;1.80;;;;;;;21.10;33.74;100849.65;105966;1257;65047;-62
2024/04/13 10:16:26;;;;;;;6.30;2.10;;;;;;;21.14;34.26;100849.91;105982;1251;61418;-60
2024/04/13 10:18:54;;;;;;;4.80;1.80;;;;;;;21.19;34.31;100845.38;105501;1257;59880;-61
2024/04/13 10:21:21;;;;;;;5.80;2.30;;;;;;;21.19;34.03;100835.30;105384;1256;67082;-60
2024/04/13 10:23:48;;;;;;;5.40;2.00;;;;;;;21.14;33.93;100840.28;109327;1255;62839;-61
2024/04/13 10:26:28;;;;;;;5.60;2.30;;;;;;;21.09;34.48;100839.98;109390;1251;65019;-61
2024/04/13 10:28:59;;;;;;;6.80;1.90;;;;;;;21.06;34.31;100843.36;109408;1251;59006;-61
2024/04/13 10:31:31;;;;;;;5.30;2.10;;;;;;;20.97;34.46;100837.16;107790;1256;61336;-60
2024/04/13 10:33:59;;;;;;;5.00;1.80;;;;;;;20.87;34.46;100833.79;106885;1256;66875;-60
2024/04/13 10:36:30;;;;;;;5.00;1.80;;;;;;;20.82;34.33;100831.52;106063;1254;62846;-61
2024/04/13 10:38:59;;;;;;;5.60;1.80;;;;;;;20.82;34.45;100827.14;105949;1260;66885;-61
2024/04/13 10:41:33;;;;;;;4.10;1.80;;;;;;;20.86;34.57;100829.79;106058;1251;61356;-60
2024/04/13 10:44:01;;;;;;;4.00;1.70;;;;;;;20.91;34.57;100828.71;105930;1256;61151;-59
2024/04/13 10:46:30;;;;;;;8.80;2.50;;;;;;;20.91;34.19;100831.72;105948;1257;66836;-59
2024/04/13 10:48:57;;;;;;;6.60;2.20;;;;;;;20.87;34.26;100824.66;106065;1263;62473;-59
2024/04/13 10:51:24;;;;;;;5.90;1.50;;;;;;;20.87;34.55;100816.70;105919;1262;64946;-59
2024/04/13 10:53:51;;;;;;;4.60;1.70;;;;;;;20.89;34.65;100819.63;106135;1254;61445;-59
2024/04/13 10:56:18;;;;;;;6.80;2.20;;;;;;;20.95;34.83;100815.57;105564;1264;61349;-61
2024/04/13 10:58:45;;;;;;;7.00;2.10;;;;;;;20.99;34.53;100814.40;105528;1255;67074;-62
2024/04/13 11:01:13;;;;;;;5.20;1.70;;;;;;;21.05;34.54;100808.70;105583;1256;62546;-59
2024/04/13 11:03:42;;;;;;;6.00;2.10;;;;;;;21.18;34.52;100801.06;105514;1257;63869;-59
2024/04/13 11:06:10;;;;;;;7.50;2.00;;;;;;;21.35;34.48;100795.31;105503;1257;61336;-58
2024/04/13 11:08:37;;;;;;;6.30;2.60;;;;;;;21.50;33.75;100810.21;106387;1252;61295;-59
2024/04/13 11:11:04;;;;;;;4.80;1.90;;;;;;;21.51;33.84;100802.01;105854;1255;67281;-59
2024/04/13 11:13:32;;;;;;;7.90;2.60;;;;;;;21.49;34.11;100795.96;105885;1256;62828;-59
2024/04/13 11:15:59;;;;;;;5.60;1.90;;;;;;;21.50;34.17;100791.20;105829;1254;63752;-58
2024/04/13 11:18:27;;;;;;;6.30;2.30;;;;;;;21.60;34.33;100785.48;106194;1251;61341;-60
2024/04/13 11:20:58;;;;;;;5.00;2.30;;;;;;;21.74;34.38;100788.45;105463;1256;61250;-60